Latest Weather Observations for Rutherglen

IDV60801

Issued at 7:03 pm EST Tuesday 25 July 2017 (issued every 30 minutes, with the page automatically refreshed every 10 minutes)

About weather observations | Map of weather stations | Latest weather observations for VIC | Other Formats
Station Details ID: 082039 Name: RUTHERGLEN RESEARCH Lat: -36.10 Lon: 146.51 Height: 175.0 m
Data from the previous 72 hours. | See also: Recent months at Rutherglen
Date/Time
EST
Temp
°C
App
Temp
°C
Dew
Point
°C
Rel
Hum
%
Delta-T
°C
Wind Press
QNH
hPa
Press
MSL
hPa
Rain since
9am
mm
Dir  Spd
km/h
Gust
km/h
Spd
kts
Gust
kts
25/07:00pm 11.4 11.2 10.3 93 0.6 E 2 6 1 3 - - 0.0
25/06:30pm 11.0 9.9 10.5 97 0.3 ENE 7 9 4 5 - - 0.0
25/06:00pm 11.3 10.1 9.4 88 1.0 ESE 6 9 3 5 - - 0.0
25/05:30pm 13.0 11.6 9.4 79 1.8 NE 7 9 4 5 - - 0.0
25/05:00pm 14.5 13.1 9.7 73 2.5 NE 7 11 4 6 - - 0.0
25/04:30pm 16.4 14.9 10.5 68 3.2 NE 9 13 5 7 - - 0.0
25/04:00pm 16.9 15.5 11.0 68 3.2 NNE 9 17 5 9 - - 0.0
25/03:30pm 16.6 15.0 11.7 73 2.7 NE 11 17 6 9 - - 0.0
25/03:00pm 16.0 13.8 10.7 71 2.8 NE 13 20 7 11 - - 0.0
25/02:30pm 15.4 13.7 11.2 76 2.3 NNE 11 20 6 11 - - 0.0
25/02:00pm 15.5 13.6 10.5 72 2.7 NNE 11 17 6 9 - - 0.0
25/01:30pm 14.3 12.3 10.1 76 2.2 NNE 11 19 6 10 - - 0.0
25/01:00pm 14.1 11.8 10.5 79 1.9 NE 13 20 7 11 - - 0.0
25/12:30pm 13.7 11.4 10.5 81 1.7 NE 13 17 7 9 - - 0.0
25/12:00pm 12.1 9.6 9.7 85 1.2 NE 13 20 7 11 - - 0.0
25/11:30am 12.0 9.5 9.6 85 1.2 NE 13 19 7 10 - - 0.0
25/11:00am 11.2 8.6 9.3 88 1.0 NE 13 20 7 11 - - 0.0
25/10:30am 10.9 8.4 9.7 92 0.6 ENE 13 19 7 10 - - 0.0
25/10:00am 11.1 8.2 9.7 91 0.7 ENE 15 20 8 11 - - 0.0
25/09:30am 10.4 8.4 10.2 99 0.1 ENE 11 17 6 9 - - 0.0
25/09:00am 9.5 7.3 9.4 99 0.1 NE 11 19 6 10 - - 0.2
25/08:30am 8.6 6.6 8.6 100 0.0 NNE 9 17 5 9 - - 0.2
25/08:00am 6.5 3.6 6.5 100 0.0 ENE 11 15 6 8 - - 0.2
25/07:30am 5.4 2.3 5.4 100 0.0 ENE 11 15 6 8 - - 0.2
25/07:00am 5.7 3.0 5.7 100 0.0 ENE 9 11 5 6 - - 0.2
25/06:30am 6.4 4.4 6.4 100 0.0 NE 6 11 3 6 - - 0.2
25/06:00am 5.9 3.3 5.9 100 0.0 E 9 11 5 6 - - 0.2
25/05:30am 4.9 2.0 4.9 100 0.0 E 9 13 5 7 - - 0.2
25/05:00am 5.3 2.5 5.3 100 0.0 ENE 9 13 5 7 - - 0.2
25/04:30am 6.2 4.0 6.2 100 0.0 ENE 7 11 4 6 - - 0.2
25/04:00am 7.6 5.0 7.6 100 0.0 ENE 11 15 6 8 - - 0.2
25/03:30am 6.5 4.0 6.5 100 0.0 E 9 11 5 6 - - 0.2
25/03:00am 6.1 3.5 6.1 100 0.0 SSE 9 11 5 6 - - 0.2
25/02:30am 6.6 4.7 6.6 100 0.0 NE 6 7 3 4 - - 0.2
25/02:00am 6.1 3.5 6.1 100 0.0 E 9 11 5 6 - - 0.2
25/01:30am 4.1 1.5 4.1 100 0.0 E 7 9 4 5 - - 0.2
25/01:00am 3.4 0.6 3.4 100 0.0 E 7 9 4 5 - - 0.2
25/12:30am 3.4 0.6 3.4 100 0.0 ESE 7 9 4 5 - - 0.2
25/12:00am 6.1 3.9 6.1 100 0.0 ENE 7 9 4 5 - - 0.2
 
Date/Time
EST
Temp
°C
App
Temp
°C
Dew
Point
°C
Rel
Hum
%
Delta-T
°C
Wind Press
QNH
hPa
Press
MSL
hPa
Rain since
9am
mm
Dir  Spd
km/h
Gust
km/h
Spd
kts
Gust
kts
24/11:30pm 4.5 2.0 4.5 100 0.0 ESE 7 9 4 5 - - 0.2
24/11:00pm 4.5 2.0 4.5 100 0.0 ENE 7 11 4 6 - - 0.2
24/10:30pm 4.7 2.2 4.7 100 0.0 ENE 7 9 4 5 - - 0.2
24/10:00pm 4.8 2.5 4.8 100 0.0 ESE 6 7 3 4 - - 0.2
24/09:30pm 5.8 3.5 5.8 100 0.0 NE 7 9 4 5 - - 0.2
24/09:00pm 4.7 3.5 4.7 100 0.0 CALM 0 4 0 2 - - 0.2
24/08:30pm 5.0 3.9 5.0 100 0.0 CALM 0 0 0 0 - - 0.2
24/08:00pm 5.8 3.7 5.8 100 0.0 ENE 6 7 3 4 - - 0.0
24/07:30pm 6.4 4.4 6.4 100 0.0 ESE 6 7 3 4 - - 0.0
24/07:00pm 7.5 5.2 7.5 100 0.0 ENE 9 13 5 7 - - 0.0
24/06:30pm 7.8 6.0 7.8 100 0.0 NE 7 11 4 6 - - 0.0
24/06:00pm 7.8 6.2 7.8 100 0.0 NE 6 9 3 5 - - 0.0
24/05:30pm 8.1 6.3 8.1 100 0.0 ENE 7 9 4 5 - - 0.0
24/05:00pm 9.5 8.1 9.4 99 0.1 ENE 7 9 4 5 - - 0.0
24/04:30pm 10.4 10.3 9.3 93 0.6 CALM 0 6 0 3 - - 0.0
24/04:00pm 10.7 9.8 10.5 99 0.1 S 6 13 3 7 - - 0.0
24/03:30pm 9.8 8.1 9.8 100 0.0 WNW 9 13 5 7 - - 0.0
24/03:00pm 9.7 8.0 9.7 100 0.0 WNW 9 19 5 10 - - 0.0
24/02:30pm 9.3 7.8 9.3 100 0.0 NW 7 11 4 6 - - 0.0
24/02:00pm 9.3 7.5 9.3 100 0.0 NW 9 13 5 7 - - 0.0
24/01:30pm 9.0 7.1 9.0 100 0.0 NNW 9 15 5 8 - - 0.0
24/01:00pm 8.9 7.5 8.9 100 0.0 NNW 6 11 3 6 - - 0.0
24/12:30pm 8.9 7.9 8.9 100 0.0 N 4 9 2 5 - - 0.0
24/12:00pm 8.0 6.2 8.0 100 0.0 NW 7 11 4 6 - - 0.0
24/11:30am 8.2 6.1 8.2 100 0.0 NE 9 13 5 7 - - 0.0
24/11:00am 8.1 6.3 8.1 100 0.0 NE 7 9 4 5 - - 0.0
24/10:30am 7.7 5.8 7.7 100 0.0 N 7 11 4 6 - - 0.0
24/10:00am 7.7 5.5 7.7 100 0.0 NNW 9 11 5 6 - - 0.0
24/09:30am 7.9 6.1 7.9 100 0.0 NNE 7 11 4 6 - - 0.0
24/09:00am 7.9 6.1 7.9 100 0.0 N 7 11 4 6 - - 2.2
24/08:30am 7.9 6.1 7.9 100 0.0 N 7 11 4 6 - - 2.2
24/08:00am 7.9 7.0 7.9 100 0.0 N 2 7 1 4 - - 2.0
24/07:30am 7.9 7.4 7.9 100 0.0 CALM 0 0 0 0 - - 2.0
24/07:00am 7.9 7.4 7.9 100 0.0 CALM 0 0 0 0 - - 2.0
24/06:30am 7.8 6.9 7.8 100 0.0 WNW 2 6 1 3 - - 2.0
24/06:00am 7.9 6.1 7.9 100 0.0 NNW 7 9 4 5 - - 2.0
24/05:30am 7.9 7.0 7.9 100 0.0 NW 2 6 1 3 - - 2.0
24/05:00am 8.0 7.5 8.0 100 0.0 CALM 0 0 0 0 - - 2.0
24/04:30am 8.1 6.5 8.1 100 0.0 NW 6 7 3 4 - - 2.0
24/04:00am 8.2 6.5 8.2 100 0.0 WSW 7 11 4 6 - - 2.0
24/03:30am 8.3 6.8 8.3 100 0.0 NW 6 7 3 4 - - 2.0
24/03:00am 8.5 7.0 8.5 100 0.0 WSW 6 9 3 5 - - 2.0
24/02:30am 8.5 6.5 8.5 100 0.0 WSW 9 13 5 7 - - 2.0
24/02:00am 8.6 6.2 8.6 100 0.0 WNW 11 17 6 9 - - 2.0
24/01:30am 8.7 5.9 8.7 100 0.0 W 13 19 7 10 - - 2.0
24/01:00am 8.8 6.4 8.8 100 0.0 WNW 11 15 6 8 - - 2.0
24/12:30am 8.9 6.2 8.9 100 0.0 W 13 20 7 11 - - 2.0
24/12:00am 8.8 6.8 8.8 100 0.0 WNW 9 11 5 6 - - 2.0
 
Date/Time
EST
Temp
°C
App
Temp
°C
Dew
Point
°C
Rel
Hum
%
Delta-T
°C
Wind Press
QNH
hPa
Press
MSL
hPa
Rain since
9am
mm
Dir  Spd
km/h
Gust
km/h
Spd
kts
Gust
kts
23/11:30pm 9.3 7.5 9.3 100 0.0 WNW 9 11 5 6 - - 2.0
23/11:00pm 9.7 7.2 9.7 100 0.0 W 13 20 7 11 - - 2.0
23/10:30pm 9.3 6.7 9.3 100 0.0 WNW 13 17 7 9 - - 2.0
23/10:00pm 7.0 5.2 7.0 100 0.0 SSW 6 7 3 4 - - 2.0
23/09:30pm 9.1 7.2 9.1 100 0.0 WNW 9 13 5 7 - - 2.0
23/09:00pm 8.9 7.3 8.9 100 0.0 NW 7 11 4 6 - - 2.0
23/08:30pm 9.7 8.3 9.7 100 0.0 NNW 7 9 4 5 - - 2.0
23/08:00pm 10.0 8.9 10.0 100 0.0 NW 6 9 3 5 - - 2.0
23/07:30pm 10.4 9.2 10.4 100 0.0 NW 7 13 4 7 - - 2.0
23/07:00pm 9.8 8.5 9.8 100 0.0 N 7 11 4 6 - - 1.4
23/06:30pm 10.8 8.9 9.2 90 0.8 NNE 9 15 5 8 - - 0.0
23/06:00pm 10.7 9.1 8.8 88 0.9 NNE 7 11 4 6 - - 0.0
23/05:30pm 9.5 8.3 7.9 90 0.8 NE 4 7 2 4 - - 0.0
23/05:00pm 11.6 9.7 7.7 77 1.9 NE 7 11 4 6 - - 0.0
23/04:30pm 12.7 11.1 8.2 74 2.2 NE 6 11 3 6 - - 0.0
23/04:00pm 13.1 11.5 8.0 71 2.5 N 6 11 3 6 - - 0.0
23/03:30pm 14.1 12.5 7.9 66 3.1 NW 6 9 3 5 - - 0.0
23/03:00pm 14.3 12.6 7.4 63 3.4 NNW 6 9 3 5 - - 0.0
23/02:30pm 13.4 10.9 6.5 63 3.3 NE 9 13 5 7 - - 0.0
23/02:00pm 14.3 11.8 6.6 60 3.8 NNE 9 13 5 7 - - 0.0
23/01:30pm 12.6 10.0 6.0 64 3.1 NE 9 15 5 8 - - 0.0
23/01:00pm 12.7 10.2 4.9 59 3.6 NNE 7 13 4 7 - - 0.0
23/12:30pm 12.1 9.2 4.8 61 3.4 N 9 13 5 7 - - 0.0
23/12:00pm 11.4 8.5 4.4 62 3.2 N 9 13 5 7 - - 0.0
23/11:30am 11.0 7.8 3.3 59 3.4 N 9 17 5 9 - - 0.0
23/11:00am 10.9 7.6 2.7 57 3.6 N 9 17 5 9 - - 0.0
23/10:30am 10.8 7.3 3.6 61 3.2 NNE 11 20 6 11 - - 0.0
23/10:00am 9.8 6.0 4.0 67 2.6 NNE 13 19 7 10 - - 0.0
23/09:30am 9.0 5.5 3.6 69 2.4 NE 11 17 6 9 - - 0.0
23/09:00am 8.6 5.2 3.8 72 2.1 ENE 11 19 6 10 - - 0.0
23/08:30am 8.3 4.9 3.8 73 2.0 ENE 11 13 6 7 - - 0.0
23/08:00am 7.2 3.6 3.1 75 1.7 ENE 11 17 6 9 - - 0.0
23/07:30am 7.1 3.1 3.0 75 1.7 NE 13 19 7 10 - - 0.0
23/07:00am 6.8 2.8 3.1 77 1.6 ENE 13 19 7 10 - - 0.0
23/06:30am 7.2 2.9 3.3 76 1.7 ENE 15 20 8 11 - - 0.0
23/06:00am 7.6 3.0 3.5 75 1.8 ENE 17 22 9 12 - - 0.0
23/05:30am 7.5 2.5 3.6 76 1.7 ENE 19 26 10 14 - - 0.0
23/05:00am 7.5 3.7 3.9 78 1.6 ENE 13 19 7 10 - - 0.0
23/04:30am 7.6 3.4 3.8 77 1.6 ENE 15 20 8 11 - - 0.0
23/04:00am 7.7 3.9 4.1 78 1.6 ENE 13 19 7 10 - - 0.0
23/03:30am 7.7 3.6 4.3 79 1.5 ENE 15 22 8 12 - - 0.0
23/03:00am 7.6 3.5 4.2 79 1.5 ENE 15 22 8 12 - - 0.0
23/02:30am 7.3 3.2 4.3 81 1.3 ENE 15 20 8 11 - - 0.0
23/02:00am 7.1 3.4 4.2 82 1.3 ENE 13 20 7 11 - - 0.0
23/01:30am 7.0 2.9 4.1 82 1.3 ENE 15 19 8 10 - - 0.0
23/01:00am 7.0 2.5 4.3 83 1.2 E 17 20 9 11 - - 0.0
23/12:30am 7.0 2.9 4.5 84 1.1 E 15 19 8 10 - - 0.0
23/12:00am 7.0 3.7 4.3 83 1.2 ENE 11 17 6 9 - - 0.0
 
Date/Time
EST
Temp
°C
App
Temp
°C
Dew
Point
°C
Rel
Hum
%
Delta-T
°C
Wind Press
QNH
hPa
Press
MSL
hPa
Rain since
9am
mm
Dir  Spd
km/h
Gust
km/h
Spd
kts
Gust
kts
22/11:30pm 7.3 3.2 4.4 82 1.3 ENE 15 20 8 11 - - 0.0
22/11:00pm 7.4 3.7 4.4 81 1.3 ENE 13 20 7 11 - - 0.0
22/10:30pm 6.7 3.0 4.2 84 1.1 ENE 13 15 7 8 - - 0.0
22/10:00pm 7.0 3.4 5.0 87 0.9 E 13 17 7 9 - - 0.0
22/09:30pm 6.2 2.5 4.7 90 0.7 E 13 19 7 10 - - 0.0
22/09:00pm 6.5 2.1 4.8 89 0.7 E 17 20 9 11 - - 0.0
22/08:30pm 7.0 3.1 5.2 88 0.8 ENE 15 20 8 11 - - 0.0
22/08:00pm 5.7 2.2 5.6 99 0.0 ENE 13 17 7 9 - - 0.0
22/07:30pm 3.0 -0.2 3.0 100 0.0 E 9 13 5 7 - - 0.0

Other Formats:

Comma delimited format used in spreadsheet applications
http://www.bom.gov.au/fwo/IDV60801/IDV60801.95837.axf

JavaScript Object Notation format (JSON) in row-major order
http://www.bom.gov.au/fwo/IDV60801/IDV60801.95837.json